sensor_id;sensor_type;location;lat;lon;timestamp;P1;durP1;ratioP1;P2;durP2;ratioP2
8086;SDS011;4086;54.412;9.980;2022-09-09T00:00:08;25.60;;;17.53;;
8086;SDS011;4086;54.412;9.980;2022-09-09T00:02:38;22.67;;;17.37;;
8086;SDS011;4086;54.412;9.980;2022-09-09T00:05:12;18.00;;;14.80;;
8086;SDS011;4086;54.412;9.980;2022-09-09T00:07:41;20.73;;;15.80;;
8086;SDS011;4086;54.412;9.980;2022-09-09T00:10:13;18.50;;;14.43;;
8086;SDS011;4086;54.412;9.980;2022-09-09T00:12:47;19.77;;;15.70;;
8086;SDS011;4086;54.412;9.980;2022-09-09T00:15:20;23.83;;;17.23;;
8086;SDS011;4086;54.412;9.980;2022-09-09T00:17:51;19.70;;;14.83;;
8086;SDS011;4086;54.412;9.980;2022-09-09T00:20:24;22.37;;;15.43;;
8086;SDS011;4086;54.412;9.980;2022-09-09T00:22:56;22.13;;;17.00;;
8086;SDS011;4086;54.412;9.980;2022-09-09T00:25:32;22.43;;;17.07;;
8086;SDS011;4086;54.412;9.980;2022-09-09T00:28:02;22.20;;;17.70;;
8086;SDS011;4086;54.412;9.980;2022-09-09T00:30:36;18.40;;;14.70;;
8086;SDS011;4086;54.412;9.980;2022-09-09T00:33:10;29.30;;;18.87;;
8086;SDS011;4086;54.412;9.980;2022-09-09T00:35:42;25.83;;;19.00;;
8086;SDS011;4086;54.412;9.980;2022-09-09T00:38:12;21.83;;;17.63;;
8086;SDS011;4086;54.412;9.980;2022-09-09T00:40:41;27.67;;;19.27;;
8086;SDS011;4086;54.412;9.980;2022-09-09T00:43:21;25.87;;;18.77;;
8086;SDS011;4086;54.412;9.980;2022-09-09T00:45:56;26.07;;;19.37;;
8086;SDS011;4086;54.412;9.980;2022-09-09T00:48:31;24.20;;;17.83;;
8086;SDS011;4086;54.412;9.980;2022-09-09T00:51:05;26.13;;;19.20;;
8086;SDS011;4086;54.412;9.980;2022-09-09T00:53:38;27.70;;;19.00;;
8086;SDS011;4086;54.412;9.980;2022-09-09T00:56:19;27.47;;;19.23;;
8086;SDS011;4086;54.412;9.980;2022-09-09T00:58:53;29.57;;;21.33;;
8086;SDS011;4086;54.412;9.980;2022-09-09T01:01:26;30.03;;;20.97;;
8086;SDS011;4086;54.412;9.980;2022-09-09T01:03:53;24.90;;;18.53;;
8086;SDS011;4086;54.412;9.980;2022-09-09T01:06:22;26.60;;;19.00;;
8086;SDS011;4086;54.412;9.980;2022-09-09T01:11:40;29.00;;;19.63;;
8086;SDS011;4086;54.412;9.980;2022-09-09T01:14:13;26.93;;;18.57;;
8086;SDS011;4086;54.412;9.980;2022-09-09T01:16:45;29.67;;;21.30;;
8086;SDS011;4086;54.412;9.980;2022-09-09T01:19:15;27.10;;;19.10;;
8086;SDS011;4086;54.412;9.980;2022-09-09T01:21:49;28.77;;;19.87;;
8086;SDS011;4086;54.412;9.980;2022-09-09T01:24:22;26.13;;;18.27;;
8086;SDS011;4086;54.412;9.980;2022-09-09T01:26:55;26.67;;;18.33;;
8086;SDS011;4086;54.412;9.980;2022-09-09T01:29:23;30.40;;;20.20;;
8086;SDS011;4086;54.412;9.980;2022-09-09T01:31:53;28.60;;;19.10;;
8086;SDS011;4086;54.412;9.980;2022-09-09T01:34:21;30.57;;;19.70;;
8086;SDS011;4086;54.412;9.980;2022-09-09T01:36:49;29.27;;;20.10;;
8086;SDS011;4086;54.412;9.980;2022-09-09T01:39:21;25.57;;;18.30;;
8086;SDS011;4086;54.412;9.980;2022-09-09T01:41:47;26.50;;;18.60;;
8086;SDS011;4086;54.412;9.980;2022-09-09T01:44:15;24.80;;;18.03;;
8086;SDS011;4086;54.412;9.980;2022-09-09T01:46:43;26.80;;;18.20;;
8086;SDS011;4086;54.412;9.980;2022-09-09T01:49:09;25.87;;;18.00;;
8086;SDS011;4086;54.412;9.980;2022-09-09T01:51:37;26.20;;;19.73;;
8086;SDS011;4086;54.412;9.980;2022-09-09T01:54:05;28.40;;;20.23;;
8086;SDS011;4086;54.412;9.980;2022-09-09T01:56:35;25.70;;;19.23;;
8086;SDS011;4086;54.412;9.980;2022-09-09T01:59:09;24.90;;;18.07;;
8086;SDS011;4086;54.412;9.980;2022-09-09T02:01:50;25.43;;;18.13;;
8086;SDS011;4086;54.412;9.980;2022-09-09T02:04:30;27.47;;;17.93;;
8086;SDS011;4086;54.412;9.980;2022-09-09T02:07:02;26.17;;;17.73;;
8086;SDS011;4086;54.412;9.980;2022-09-09T02:09:34;25.80;;;18.43;;
8086;SDS011;4086;54.412;9.980;2022-09-09T02:12:05;28.17;;;19.40;;
8086;SDS011;4086;54.412;9.980;2022-09-09T02:14:36;27.10;;;18.40;;
8086;SDS011;4086;54.412;9.980;2022-09-09T02:17:07;28.13;;;18.43;;
8086;SDS011;4086;54.412;9.980;2022-09-09T02:19:35;26.57;;;17.83;;
8086;SDS011;4086;54.412;9.980;2022-09-09T02:22:03;23.60;;;17.13;;
8086;SDS011;4086;54.412;9.980;2022-09-09T02:24:32;25.67;;;18.10;;
8086;SDS011;4086;54.412;9.980;2022-09-09T02:27:01;22.63;;;15.57;;
8086;SDS011;4086;54.412;9.980;2022-09-09T02:29:31;30.10;;;18.17;;
8086;SDS011;4086;54.412;9.980;2022-09-09T02:32:03;22.90;;;17.53;;
8086;SDS011;4086;54.412;9.980;2022-09-09T02:34:31;21.97;;;16.07;;
8086;SDS011;4086;54.412;9.980;2022-09-09T02:37:00;25.40;;;17.17;;
8086;SDS011;4086;54.412;9.980;2022-09-09T02:39:27;21.67;;;16.30;;
8086;SDS011;4086;54.412;9.980;2022-09-09T02:41:53;28.73;;;19.37;;
8086;SDS011;4086;54.412;9.980;2022-09-09T02:44:20;23.87;;;17.70;;
8086;SDS011;4086;54.412;9.980;2022-09-09T02:46:51;28.60;;;19.67;;
8086;SDS011;4086;54.412;9.980;2022-09-09T02:49:32;24.60;;;17.40;;
8086;SDS011;4086;54.412;9.980;2022-09-09T02:52:25;21.17;;;15.23;;
8086;SDS011;4086;54.412;9.980;2022-09-09T02:54:54;23.70;;;17.13;;
8086;SDS011;4086;54.412;9.980;2022-09-09T02:57:25;28.10;;;18.27;;
8086;SDS011;4086;54.412;9.980;2022-09-09T02:59:56;29.07;;;20.00;;
8086;SDS011;4086;54.412;9.980;2022-09-09T03:02:24;29.93;;;19.47;;
8086;SDS011;4086;54.412;9.980;2022-09-09T03:04:51;28.83;;;18.97;;
8086;SDS011;4086;54.412;9.980;2022-09-09T03:07:18;25.80;;;18.93;;
8086;SDS011;4086;54.412;9.980;2022-09-09T03:09:45;27.67;;;19.83;;
8086;SDS011;4086;54.412;9.980;2022-09-09T03:12:12;31.93;;;20.70;;
8086;SDS011;4086;54.412;9.980;2022-09-09T03:14:38;31.67;;;20.70;;
8086;SDS011;4086;54.412;9.980;2022-09-09T03:17:05;30.27;;;20.43;;
8086;SDS011;4086;54.412;9.980;2022-09-09T03:19:35;29.43;;;20.10;;
8086;SDS011;4086;54.412;9.980;2022-09-09T03:22:02;32.10;;;21.03;;
8086;SDS011;4086;54.412;9.980;2022-09-09T03:24:30;30.20;;;19.53;;
8086;SDS011;4086;54.412;9.980;2022-09-09T03:26:56;33.57;;;21.20;;
8086;SDS011;4086;54.412;9.980;2022-09-09T03:29:23;28.87;;;20.33;;
8086;SDS011;4086;54.412;9.980;2022-09-09T03:31:49;32.27;;;20.30;;
8086;SDS011;4086;54.412;9.980;2022-09-09T03:34:16;33.53;;;20.70;;
8086;SDS011;4086;54.412;9.980;2022-09-09T03:36:44;27.93;;;19.70;;
8086;SDS011;4086;54.412;9.980;2022-09-09T03:39:11;28.87;;;19.10;;
8086;SDS011;4086;54.412;9.980;2022-09-09T03:41:37;31.43;;;21.00;;
8086;SDS011;4086;54.412;9.980;2022-09-09T03:44:03;28.37;;;18.30;;
8086;SDS011;4086;54.412;9.980;2022-09-09T03:46:30;30.43;;;20.50;;
8086;SDS011;4086;54.412;9.980;2022-09-09T03:48:57;32.93;;;21.63;;
8086;SDS011;4086;54.412;9.980;2022-09-09T03:51:23;32.03;;;20.50;;
8086;SDS011;4086;54.412;9.980;2022-09-09T03:53:51;32.57;;;20.20;;
8086;SDS011;4086;54.412;9.980;2022-09-09T03:56:19;27.77;;;18.63;;
8086;SDS011;4086;54.412;9.980;2022-09-09T03:58:46;34.03;;;20.63;;
8086;SDS011;4086;54.412;9.980;2022-09-09T04:01:13;34.13;;;21.30;;
8086;SDS011;4086;54.412;9.980;2022-09-09T04:03:42;30.90;;;20.23;;
8086;SDS011;4086;54.412;9.980;2022-09-09T04:06:10;31.10;;;20.37;;
8086;SDS011;4086;54.412;9.980;2022-09-09T04:08:38;35.07;;;21.23;;
8086;SDS011;4086;54.412;9.980;2022-09-09T04:11:06;30.90;;;19.57;;
8086;SDS011;4086;54.412;9.980;2022-09-09T04:13:33;35.87;;;20.97;;
8086;SDS011;4086;54.412;9.980;2022-09-09T04:16:00;30.10;;;19.40;;
8086;SDS011;4086;54.412;9.980;2022-09-09T04:18:29;28.37;;;19.27;;
8086;SDS011;4086;54.412;9.980;2022-09-09T04:20:56;33.20;;;20.03;;
8086;SDS011;4086;54.412;9.980;2022-09-09T04:23:23;29.90;;;18.53;;
8086;SDS011;4086;54.412;9.980;2022-09-09T04:25:54;32.20;;;20.50;;
8086;SDS011;4086;54.412;9.980;2022-09-09T04:28:23;32.70;;;19.80;;
8086;SDS011;4086;54.412;9.980;2022-09-09T04:30:50;28.10;;;19.23;;
8086;SDS011;4086;54.412;9.980;2022-09-09T04:33:17;25.53;;;17.53;;
8086;SDS011;4086;54.412;9.980;2022-09-09T04:35:44;32.57;;;20.47;;
8086;SDS011;4086;54.412;9.980;2022-09-09T04:38:12;28.90;;;17.93;;
8086;SDS011;4086;54.412;9.980;2022-09-09T04:40:38;30.87;;;19.93;;
8086;SDS011;4086;54.412;9.980;2022-09-09T04:43:08;29.13;;;18.27;;
8086;SDS011;4086;54.412;9.980;2022-09-09T04:45:36;32.87;;;19.93;;
8086;SDS011;4086;54.412;9.980;2022-09-09T04:48:02;31.57;;;19.90;;
8086;SDS011;4086;54.412;9.980;2022-09-09T04:50:29;28.20;;;19.47;;
8086;SDS011;4086;54.412;9.980;2022-09-09T04:52:56;30.10;;;19.70;;
8086;SDS011;4086;54.412;9.980;2022-09-09T04:55:25;30.70;;;20.20;;
8086;SDS011;4086;54.412;9.980;2022-09-09T04:57:52;28.67;;;18.67;;
8086;SDS011;4086;54.412;9.980;2022-09-09T05:00:18;28.87;;;19.27;;
8086;SDS011;4086;54.412;9.980;2022-09-09T05:02:46;24.33;;;16.13;;
8086;SDS011;4086;54.412;9.980;2022-09-09T05:05:13;25.03;;;16.63;;
8086;SDS011;4086;54.412;9.980;2022-09-09T05:07:40;25.53;;;16.80;;
8086;SDS011;4086;54.412;9.980;2022-09-09T05:10:06;24.30;;;17.33;;
8086;SDS011;4086;54.412;9.980;2022-09-09T05:12:35;27.70;;;17.23;;
8086;SDS011;4086;54.412;9.980;2022-09-09T05:15:01;26.40;;;17.23;;
8086;SDS011;4086;54.412;9.980;2022-09-09T05:17:28;28.87;;;17.50;;
8086;SDS011;4086;54.412;9.980;2022-09-09T05:19:55;28.30;;;18.70;;
8086;SDS011;4086;54.412;9.980;2022-09-09T05:22:22;26.40;;;18.00;;
8086;SDS011;4086;54.412;9.980;2022-09-09T05:24:48;24.27;;;15.70;;
8086;SDS011;4086;54.412;9.980;2022-09-09T05:27:15;29.70;;;18.90;;
8086;SDS011;4086;54.412;9.980;2022-09-09T05:29:44;28.70;;;18.73;;
8086;SDS011;4086;54.412;9.980;2022-09-09T05:32:10;29.93;;;18.63;;
8086;SDS011;4086;54.412;9.980;2022-09-09T05:34:38;29.40;;;19.27;;
8086;SDS011;4086;54.412;9.980;2022-09-09T05:37:06;30.53;;;19.23;;
8086;SDS011;4086;54.412;9.980;2022-09-09T05:39:33;30.37;;;19.00;;
8086;SDS011;4086;54.412;9.980;2022-09-09T05:42:01;31.03;;;18.67;;
8086;SDS011;4086;54.412;9.980;2022-09-09T05:44:27;30.57;;;18.90;;
8086;SDS011;4086;54.412;9.980;2022-09-09T05:46:54;30.33;;;19.77;;
8086;SDS011;4086;54.412;9.980;2022-09-09T05:49:20;30.27;;;19.13;;
8086;SDS011;4086;54.412;9.980;2022-09-09T05:51:47;33.57;;;19.23;;
8086;SDS011;4086;54.412;9.980;2022-09-09T05:54:16;29.87;;;18.53;;
8086;SDS011;4086;54.412;9.980;2022-09-09T05:56:43;36.00;;;20.57;;
8086;SDS011;4086;54.412;9.980;2022-09-09T05:59:09;32.03;;;19.90;;
8086;SDS011;4086;54.412;9.980;2022-09-09T06:01:36;35.50;;;19.40;;
8086;SDS011;4086;54.412;9.980;2022-09-09T06:04:05;35.93;;;21.00;;
8086;SDS011;4086;54.412;9.980;2022-09-09T06:06:33;38.03;;;21.93;;
8086;SDS011;4086;54.412;9.980;2022-09-09T06:09:02;42.10;;;22.87;;
8086;SDS011;4086;54.412;9.980;2022-09-09T06:11:33;38.97;;;21.40;;
8086;SDS011;4086;54.412;9.980;2022-09-09T06:14:01;35.87;;;21.67;;
8086;SDS011;4086;54.412;9.980;2022-09-09T06:16:28;32.87;;;19.67;;
8086;SDS011;4086;54.412;9.980;2022-09-09T06:18:57;40.57;;;23.60;;
8086;SDS011;4086;54.412;9.980;2022-09-09T06:21:25;35.87;;;22.07;;
8086;SDS011;4086;54.412;9.980;2022-09-09T06:23:52;39.63;;;22.67;;
8086;SDS011;4086;54.412;9.980;2022-09-09T06:26:20;41.63;;;24.63;;
8086;SDS011;4086;54.412;9.980;2022-09-09T06:28:49;45.73;;;25.90;;
8086;SDS011;4086;54.412;9.980;2022-09-09T06:31:18;46.57;;;25.00;;
8086;SDS011;4086;54.412;9.980;2022-09-09T06:33:46;45.60;;;25.07;;
8086;SDS011;4086;54.412;9.980;2022-09-09T06:36:14;48.10;;;25.53;;
8086;SDS011;4086;54.412;9.980;2022-09-09T06:38:43;42.67;;;23.93;;
8086;SDS011;4086;54.412;9.980;2022-09-09T06:41:10;43.20;;;24.73;;
8086;SDS011;4086;54.412;9.980;2022-09-09T06:43:37;45.97;;;25.43;;
8086;SDS011;4086;54.412;9.980;2022-09-09T06:46:06;49.43;;;24.73;;
8086;SDS011;4086;54.412;9.980;2022-09-09T06:48:35;49.97;;;26.67;;
8086;SDS011;4086;54.412;9.980;2022-09-09T06:51:02;42.13;;;24.20;;
8086;SDS011;4086;54.412;9.980;2022-09-09T06:53:29;47.50;;;24.87;;
8086;SDS011;4086;54.412;9.980;2022-09-09T06:55:58;44.73;;;24.23;;
8086;SDS011;4086;54.412;9.980;2022-09-09T06:58:26;41.57;;;24.20;;
8086;SDS011;4086;54.412;9.980;2022-09-09T07:00:53;49.43;;;25.67;;
8086;SDS011;4086;54.412;9.980;2022-09-09T07:03:21;42.90;;;24.23;;
8086;SDS011;4086;54.412;9.980;2022-09-09T07:05:53;40.43;;;23.07;;
8086;SDS011;4086;54.412;9.980;2022-09-09T07:08:21;48.23;;;25.43;;
8086;SDS011;4086;54.412;9.980;2022-09-09T07:10:47;48.23;;;25.73;;
8086;SDS011;4086;54.412;9.980;2022-09-09T07:13:14;49.60;;;25.07;;
8086;SDS011;4086;54.412;9.980;2022-09-09T07:15:41;44.73;;;24.30;;
8086;SDS011;4086;54.412;9.980;2022-09-09T07:18:07;52.10;;;26.27;;
8086;SDS011;4086;54.412;9.980;2022-09-09T07:20:36;46.73;;;25.30;;
8086;SDS011;4086;54.412;9.980;2022-09-09T07:23:03;49.60;;;26.50;;
8086;SDS011;4086;54.412;9.980;2022-09-09T07:25:29;49.03;;;26.17;;
8086;SDS011;4086;54.412;9.980;2022-09-09T07:27:55;45.47;;;24.60;;
8086;SDS011;4086;54.412;9.980;2022-09-09T07:30:22;38.97;;;23.93;;
8086;SDS011;4086;54.412;9.980;2022-09-09T07:32:50;38.17;;;22.80;;
8086;SDS011;4086;54.412;9.980;2022-09-09T07:35:17;40.93;;;24.37;;
8086;SDS011;4086;54.412;9.980;2022-09-09T07:37:44;40.17;;;24.20;;
8086;SDS011;4086;54.412;9.980;2022-09-09T07:40:11;38.57;;;23.33;;
8086;SDS011;4086;54.412;9.980;2022-09-09T07:42:37;43.37;;;23.87;;
8086;SDS011;4086;54.412;9.980;2022-09-09T07:45:04;38.43;;;23.37;;
8086;SDS011;4086;54.412;9.980;2022-09-09T07:47:31;35.50;;;22.83;;
8086;SDS011;4086;54.412;9.980;2022-09-09T07:49:58;35.43;;;22.70;;
8086;SDS011;4086;54.412;9.980;2022-09-09T07:52:24;33.67;;;22.03;;
8086;SDS011;4086;54.412;9.980;2022-09-09T07:54:53;32.17;;;22.17;;
8086;SDS011;4086;54.412;9.980;2022-09-09T07:57:21;31.00;;;21.83;;
8086;SDS011;4086;54.412;9.980;2022-09-09T07:59:48;33.60;;;23.13;;
8086;SDS011;4086;54.412;9.980;2022-09-09T08:02:14;29.63;;;22.37;;
8086;SDS011;4086;54.412;9.980;2022-09-09T08:04:40;29.97;;;20.30;;
8086;SDS011;4086;54.412;9.980;2022-09-09T08:07:07;29.07;;;20.53;;
8086;SDS011;4086;54.412;9.980;2022-09-09T08:09:33;29.20;;;19.80;;
8086;SDS011;4086;54.412;9.980;2022-09-09T08:12:01;30.37;;;21.57;;
8086;SDS011;4086;54.412;9.980;2022-09-09T08:14:29;29.47;;;20.43;;
8086;SDS011;4086;54.412;9.980;2022-09-09T08:16:55;30.17;;;21.40;;
8086;SDS011;4086;54.412;9.980;2022-09-09T08:19:22;29.27;;;21.90;;
8086;SDS011;4086;54.412;9.980;2022-09-09T08:21:48;30.77;;;21.10;;
8086;SDS011;4086;54.412;9.980;2022-09-09T08:24:15;28.80;;;20.97;;
8086;SDS011;4086;54.412;9.980;2022-09-09T08:26:42;31.03;;;21.93;;
8086;SDS011;4086;54.412;9.980;2022-09-09T08:29:11;31.33;;;21.57;;
8086;SDS011;4086;54.412;9.980;2022-09-09T08:31:39;25.23;;;20.03;;
8086;SDS011;4086;54.412;9.980;2022-09-09T08:34:07;27.47;;;20.33;;
8086;SDS011;4086;54.412;9.980;2022-09-09T08:36:35;28.10;;;20.63;;
8086;SDS011;4086;54.412;9.980;2022-09-09T08:39:04;25.77;;;21.00;;
8086;SDS011;4086;54.412;9.980;2022-09-09T08:41:35;22.50;;;18.03;;
8086;SDS011;4086;54.412;9.980;2022-09-09T08:44:09;25.00;;;19.07;;
8086;SDS011;4086;54.412;9.980;2022-09-09T08:46:42;21.37;;;17.07;;
8086;SDS011;4086;54.412;9.980;2022-09-09T08:49:16;20.93;;;16.67;;
8086;SDS011;4086;54.412;9.980;2022-09-09T08:51:50;19.23;;;16.73;;
8086;SDS011;4086;54.412;9.980;2022-09-09T08:54:17;18.40;;;16.17;;
8086;SDS011;4086;54.412;9.980;2022-09-09T08:56:44;17.90;;;14.33;;
8086;SDS011;4086;54.412;9.980;2022-09-09T08:59:12;18.10;;;15.17;;
8086;SDS011;4086;54.412;9.980;2022-09-09T09:01:43;18.30;;;15.23;;
8086;SDS011;4086;54.412;9.980;2022-09-09T09:04:21;18.97;;;15.43;;
8086;SDS011;4086;54.412;9.980;2022-09-09T09:06:59;18.50;;;15.53;;
8086;SDS011;4086;54.412;9.980;2022-09-09T09:09:32;19.63;;;17.10;;
8086;SDS011;4086;54.412;9.980;2022-09-09T09:12:06;18.50;;;14.93;;
8086;SDS011;4086;54.412;9.980;2022-09-09T09:14:41;17.23;;;15.37;;
8086;SDS011;4086;54.412;9.980;2022-09-09T09:17:10;19.37;;;16.53;;
8086;SDS011;4086;54.412;9.980;2022-09-09T09:19:39;18.80;;;15.43;;
8086;SDS011;4086;54.412;9.980;2022-09-09T09:22:10;17.87;;;15.70;;
8086;SDS011;4086;54.412;9.980;2022-09-09T09:24:42;18.70;;;15.70;;
8086;SDS011;4086;54.412;9.980;2022-09-09T09:27:12;15.60;;;14.00;;
8086;SDS011;4086;54.412;9.980;2022-09-09T09:29:41;18.53;;;15.37;;
8086;SDS011;4086;54.412;9.980;2022-09-09T09:32:09;20.00;;;15.90;;
8086;SDS011;4086;54.412;9.980;2022-09-09T09:34:37;16.57;;;14.80;;
8086;SDS011;4086;54.412;9.980;2022-09-09T09:37:11;21.30;;;16.90;;
8086;SDS011;4086;54.412;9.980;2022-09-09T09:39:42;17.63;;;15.63;;
8086;SDS011;4086;54.412;9.980;2022-09-09T09:42:09;16.53;;;14.77;;
8086;SDS011;4086;54.412;9.980;2022-09-09T09:44:39;18.90;;;16.90;;
8086;SDS011;4086;54.412;9.980;2022-09-09T09:47:07;18.77;;;15.47;;
8086;SDS011;4086;54.412;9.980;2022-09-09T09:49:36;16.63;;;14.93;;
8086;SDS011;4086;54.412;9.980;2022-09-09T09:52:03;18.00;;;16.20;;
8086;SDS011;4086;54.412;9.980;2022-09-09T09:54:31;17.53;;;15.67;;
8086;SDS011;4086;54.412;9.980;2022-09-09T09:57:07;17.20;;;15.60;;
8086;SDS011;4086;54.412;9.980;2022-09-09T09:59:35;16.50;;;14.80;;
8086;SDS011;4086;54.412;9.980;2022-09-09T10:02:19;15.20;;;13.70;;
8086;SDS011;4086;54.412;9.980;2022-09-09T10:04:59;15.30;;;13.70;;
8086;SDS011;4086;54.412;9.980;2022-09-09T10:07:27;15.07;;;13.57;;
8086;SDS011;4086;54.412;9.980;2022-09-09T10:09:55;17.20;;;15.40;;
8086;SDS011;4086;54.412;9.980;2022-09-09T10:12:26;14.67;;;13.27;;
8086;SDS011;4086;54.412;9.980;2022-09-09T10:15:00;15.17;;;13.70;;
8086;SDS011;4086;54.412;9.980;2022-09-09T10:17:33;15.83;;;14.23;;
8086;SDS011;4086;54.412;9.980;2022-09-09T10:20:15;15.37;;;13.87;;
8086;SDS011;4086;54.412;9.980;2022-09-09T10:22:55;13.50;;;12.33;;
8086;SDS011;4086;54.412;9.980;2022-09-09T10:25:43;11.23;;;10.23;;
8086;SDS011;4086;54.412;9.980;2022-09-09T10:28:28;8.03;;;7.23;;
8086;SDS011;4086;54.412;9.980;2022-09-09T10:31:02;7.57;;;6.97;;
8086;SDS011;4086;54.412;9.980;2022-09-09T10:33:39;6.97;;;6.37;;
8086;SDS011;4086;54.412;9.980;2022-09-09T10:36:13;7.93;;;7.13;;
8086;SDS011;4086;54.412;9.980;2022-09-09T10:38:40;6.20;;;5.70;;
8086;SDS011;4086;54.412;9.980;2022-09-09T10:41:15;5.80;;;5.30;;
8086;SDS011;4086;54.412;9.980;2022-09-09T10:43:58;4.93;;;4.53;;
8086;SDS011;4086;54.412;9.980;2022-09-09T10:46:34;5.13;;;4.73;;
8086;SDS011;4086;54.412;9.980;2022-09-09T10:49:12;3.90;;;3.70;;
8086;SDS011;4086;54.412;9.980;2022-09-09T10:51:45;3.90;;;3.47;;
8086;SDS011;4086;54.412;9.980;2022-09-09T10:54:21;3.60;;;3.30;;
8086;SDS011;4086;54.412;9.980;2022-09-09T10:56:52;3.53;;;3.23;;
8086;SDS011;4086;54.412;9.980;2022-09-09T10:59:22;3.30;;;3.00;;
8086;SDS011;4086;54.412;9.980;2022-09-09T11:01:51;3.10;;;2.73;;
8086;SDS011;4086;54.412;9.980;2022-09-09T11:04:22;2.70;;;2.50;;
8086;SDS011;4086;54.412;9.980;2022-09-09T11:06:51;3.27;;;3.07;;
8086;SDS011;4086;54.412;9.980;2022-09-09T11:09:21;2.27;;;2.13;;
8086;SDS011;4086;54.412;9.980;2022-09-09T11:11:50;2.10;;;2.00;;
8086;SDS011;4086;54.412;9.980;2022-09-09T11:14:19;2.83;;;2.47;;
8086;SDS011;4086;54.412;9.980;2022-09-09T11:16:50;2.40;;;2.20;;
8086;SDS011;4086;54.412;9.980;2022-09-09T11:19:19;2.20;;;2.10;;
8086;SDS011;4086;54.412;9.980;2022-09-09T11:21:52;2.97;;;2.20;;
8086;SDS011;4086;54.412;9.980;2022-09-09T11:24:20;2.13;;;2.00;;
8086;SDS011;4086;54.412;9.980;2022-09-09T11:26:50;2.53;;;2.33;;
8086;SDS011;4086;54.412;9.980;2022-09-09T11:29:31;2.30;;;2.10;;
8086;SDS011;4086;54.412;9.980;2022-09-09T11:32:08;2.50;;;2.30;;
8086;SDS011;4086;54.412;9.980;2022-09-09T11:34:49;2.47;;;2.27;;
8086;SDS011;4086;54.412;9.980;2022-09-09T11:37:29;2.90;;;2.40;;
8086;SDS011;4086;54.412;9.980;2022-09-09T11:40:22;2.90;;;2.70;;
8086;SDS011;4086;54.412;9.980;2022-09-09T11:42:59;2.63;;;2.50;;
8086;SDS011;4086;54.412;9.980;2022-09-09T11:45:29;2.30;;;2.20;;
8086;SDS011;4086;54.412;9.980;2022-09-09T11:47:56;2.77;;;2.57;;
8086;SDS011;4086;54.412;9.980;2022-09-09T11:50:37;2.37;;;2.10;;
8086;SDS011;4086;54.412;9.980;2022-09-09T11:53:21;2.40;;;2.30;;
8086;SDS011;4086;54.412;9.980;2022-09-09T11:55:59;2.77;;;2.57;;
8086;SDS011;4086;54.412;9.980;2022-09-09T11:58:27;1.87;;;1.80;;
8086;SDS011;4086;54.412;9.980;2022-09-09T12:00:57;2.30;;;2.20;;
8086;SDS011;4086;54.412;9.980;2022-09-09T12:03:38;3.10;;;2.10;;
8086;SDS011;4086;54.412;9.980;2022-09-09T12:06:25;2.50;;;2.30;;
8086;SDS011;4086;54.412;9.980;2022-09-09T12:08:54;2.00;;;1.90;;
8086;SDS011;4086;54.412;9.980;2022-09-09T12:11:23;2.00;;;1.90;;
8086;SDS011;4086;54.412;9.980;2022-09-09T12:13:54;2.23;;;2.03;;
8086;SDS011;4086;54.412;9.980;2022-09-09T12:16:28;1.80;;;1.70;;
8086;SDS011;4086;54.412;9.980;2022-09-09T12:19:03;1.50;;;1.40;;
8086;SDS011;4086;54.412;9.980;2022-09-09T12:21:33;1.38;;;1.23;;
8086;SDS011;4086;54.412;9.980;2022-09-09T12:24:01;2.28;;;1.35;;
8086;SDS011;4086;54.412;9.980;2022-09-09T12:26:31;1.33;;;1.30;;
8086;SDS011;4086;54.412;9.980;2022-09-09T12:29:05;1.52;;;1.20;;
8086;SDS011;4086;54.412;9.980;2022-09-09T12:31:39;1.50;;;1.40;;
8086;SDS011;4086;54.412;9.980;2022-09-09T12:34:10;1.77;;;1.67;;
8086;SDS011;4086;54.412;9.980;2022-09-09T12:36:40;1.40;;;1.30;;
8086;SDS011;4086;54.412;9.980;2022-09-09T12:39:10;1.70;;;1.60;;
8086;SDS011;4086;54.412;9.980;2022-09-09T12:41:50;1.87;;;1.23;;
8086;SDS011;4086;54.412;9.980;2022-09-09T12:44:22;1.33;;;1.23;;
8086;SDS011;4086;54.412;9.980;2022-09-09T12:46:49;1.40;;;1.40;;
8086;SDS011;4086;54.412;9.980;2022-09-09T12:49:26;1.77;;;1.30;;
8086;SDS011;4086;54.412;9.980;2022-09-09T12:51:57;1.77;;;1.15;;
8086;SDS011;4086;54.412;9.980;2022-09-09T12:54:23;1.40;;;1.30;;
8086;SDS011;4086;54.412;9.980;2022-09-09T12:56:50;3.15;;;1.65;;
8086;SDS011;4086;54.412;9.980;2022-09-09T12:59:21;1.38;;;1.27;;
8086;SDS011;4086;54.412;9.980;2022-09-09T13:01:54;1.20;;;1.20;;
8086;SDS011;4086;54.412;9.980;2022-09-09T13:04:21;1.42;;;1.33;;
8086;SDS011;4086;54.412;9.980;2022-09-09T13:06:48;1.20;;;1.10;;
8086;SDS011;4086;54.412;9.980;2022-09-09T13:09:16;1.30;;;1.20;;
8086;SDS011;4086;54.412;9.980;2022-09-09T13:11:43;1.33;;;1.00;;
8086;SDS011;4086;54.412;9.980;2022-09-09T13:14:13;1.20;;;1.10;;
8086;SDS011;4086;54.412;9.980;2022-09-09T13:16:54;1.93;;;1.20;;
8086;SDS011;4086;54.412;9.980;2022-09-09T13:19:21;2.03;;;1.10;;
8086;SDS011;4086;54.412;9.980;2022-09-09T13:21:50;1.00;;;1.00;;
8086;SDS011;4086;54.412;9.980;2022-09-09T13:24:24;1.37;;;0.93;;
8086;SDS011;4086;54.412;9.980;2022-09-09T13:26:54;0.90;;;0.90;;
8086;SDS011;4086;54.412;9.980;2022-09-09T13:29:22;1.30;;;1.20;;
8086;SDS011;4086;54.412;9.980;2022-09-09T13:31:49;1.65;;;1.25;;
8086;SDS011;4086;54.412;9.980;2022-09-09T13:34:25;1.20;;;1.20;;
8086;SDS011;4086;54.412;9.980;2022-09-09T13:36:54;1.10;;;1.10;;
8086;SDS011;4086;54.412;9.980;2022-09-09T13:39:25;3.93;;;1.40;;
8086;SDS011;4086;54.412;9.980;2022-09-09T13:41:51;0.90;;;0.90;;
8086;SDS011;4086;54.412;9.980;2022-09-09T13:44:19;1.30;;;1.20;;
8086;SDS011;4086;54.412;9.980;2022-09-09T13:46:58;1.80;;;1.20;;
8086;SDS011;4086;54.412;9.980;2022-09-09T13:49:26;1.10;;;1.00;;
8086;SDS011;4086;54.412;9.980;2022-09-09T13:52:02;1.10;;;1.10;;
8086;SDS011;4086;54.412;9.980;2022-09-09T13:54:32;0.90;;;0.90;;
8086;SDS011;4086;54.412;9.980;2022-09-09T13:56:58;1.57;;;1.07;;
8086;SDS011;4086;54.412;9.980;2022-09-09T13:59:26;0.80;;;0.80;;
8086;SDS011;4086;54.412;9.980;2022-09-09T14:01:52;0.83;;;0.83;;
8086;SDS011;4086;54.412;9.980;2022-09-09T14:04:19;1.13;;;1.00;;
8086;SDS011;4086;54.412;9.980;2022-09-09T14:06:46;1.83;;;0.93;;
8086;SDS011;4086;54.412;9.980;2022-09-09T14:09:14;0.80;;;0.80;;
8086;SDS011;4086;54.412;9.980;2022-09-09T14:11:43;1.00;;;0.90;;
8086;SDS011;4086;54.412;9.980;2022-09-09T14:14:10;0.93;;;0.93;;
8086;SDS011;4086;54.412;9.980;2022-09-09T14:16:36;3.30;;;1.10;;
8086;SDS011;4086;54.412;9.980;2022-09-09T14:19:03;0.97;;;0.80;;
8086;SDS011;4086;54.412;9.980;2022-09-09T14:21:30;0.90;;;0.90;;
8086;SDS011;4086;54.412;9.980;2022-09-09T14:23:57;0.80;;;0.80;;
8086;SDS011;4086;54.412;9.980;2022-09-09T14:26:24;0.90;;;0.80;;
8086;SDS011;4086;54.412;9.980;2022-09-09T14:28:52;0.93;;;0.90;;
8086;SDS011;4086;54.412;9.980;2022-09-09T14:31:18;1.27;;;0.87;;
8086;SDS011;4086;54.412;9.980;2022-09-09T14:33:46;2.00;;;1.00;;
8086;SDS011;4086;54.412;9.980;2022-09-09T14:36:12;1.30;;;0.90;;
8086;SDS011;4086;54.412;9.980;2022-09-09T14:38:40;0.90;;;0.90;;
8086;SDS011;4086;54.412;9.980;2022-09-09T14:41:07;1.10;;;0.90;;
8086;SDS011;4086;54.412;9.980;2022-09-09T14:43:35;1.63;;;0.93;;
8086;SDS011;4086;54.412;9.980;2022-09-09T14:46:05;1.20;;;1.00;;
8086;SDS011;4086;54.412;9.980;2022-09-09T14:48:32;0.80;;;0.80;;
8086;SDS011;4086;54.412;9.980;2022-09-09T14:51:04;1.13;;;1.10;;
8086;SDS011;4086;54.412;9.980;2022-09-09T14:53:31;1.80;;;1.00;;
8086;SDS011;4086;54.412;9.980;2022-09-09T14:56:02;0.90;;;0.90;;
8086;SDS011;4086;54.412;9.980;2022-09-09T14:58:30;1.57;;;1.10;;
8086;SDS011;4086;54.412;9.980;2022-09-09T15:01:01;1.20;;;1.00;;
8086;SDS011;4086;54.412;9.980;2022-09-09T15:03:30;1.77;;;0.80;;
8086;SDS011;4086;54.412;9.980;2022-09-09T15:05:56;1.83;;;1.03;;
8086;SDS011;4086;54.412;9.980;2022-09-09T15:08:24;1.23;;;1.00;;
8086;SDS011;4086;54.412;9.980;2022-09-09T15:10:51;3.33;;;1.20;;
8086;SDS011;4086;54.412;9.980;2022-09-09T15:13:24;0.93;;;0.90;;